Time;durP1;ratioP1;P1;durP2;ratioP2;P2;SDS_P1;SDS_P2;PMS_P1;PMS_P2;Temp;Humidity;BMP_temperature;BMP_pressure;BME280_temperature;BME280_humidity;BME280_pressure;Samples;Min_cycle;Max_cycle;Signal;HPM_P1;HPM_P2
2023/10/18 00:03:04;;;;;;;4.90;3.00;;;;;;;-0.17;81.72;99262.09;102619;1293;600140;-23
2023/10/18 00:05:32;;;;;;;9.50;4.20;;;;;;;-0.31;83.34;99262.23;104881;1266;61203;-24
2023/10/18 00:07:59;;;;;;;7.30;4.20;;;;;;;0.23;84.11;99259.01;104822;1267;61064;-24
2023/10/18 00:10:27;;;;;;;11.40;5.10;;;;;;;0.88;82.93;99259.86;104798;1266;72238;-24
2023/10/18 00:20:43;;;;;;;6.90;4.40;;;;;;;0.39;80.85;99258.25;102597;1292;600199;-24
2023/10/18 00:23:11;;;;;;;6.60;4.10;;;;;;;0.09;80.79;99256.09;104821;1266;61079;-24
2023/10/18 00:31:53;;;;;;;7.10;3.90;;;;;;;-0.52;83.32;99257.59;102558;1291;600190;-23
2023/10/18 00:34:21;;;;;;;5.30;3.20;;;;;;;-0.43;84.20;99255.79;105397;1262;61171;-24
2023/10/18 00:44:31;;;;;;;6.70;4.30;;;;;;;1.02;79.85;99245.64;102668;1294;600090;-24
2023/10/18 00:54:38;;;;;;;7.60;4.60;;;;;;;0.07;81.06;99244.69;102709;1293;600434;-24
2023/10/18 00:57:07;;;;;;;9.40;5.40;;;;;;;-0.17;81.21;99242.30;105113;1269;61289;-24
2023/10/18 00:59:38;;;;;;;9.50;5.50;;;;;;;-0.35;81.39;99239.98;105108;1265;61055;-24
2023/10/18 01:02:11;;;;;;;9.80;4.40;;;;;;;0.07;81.21;99239.73;105056;1267;71190;-24
2023/10/18 01:04:40;;;;;;;7.50;4.60;;;;;;;0.69;80.45;99234.95;105101;1267;74270;-24
2023/10/18 01:14:32;;;;;;;8.50;4.80;;;;;;;0.23;79.45;99233.20;102767;1294;600514;-24
2023/10/18 01:17:01;;;;;;;11.60;6.30;;;;;;;-0.09;81.21;99229.37;104861;1270;61173;-24
2023/10/18 01:19:30;;;;;;;6.50;4.50;;;;;;;-0.26;82.45;99226.40;104874;1266;61039;-24
2023/10/18 01:22:00;;;;;;;7.40;4.30;;;;;;;0.16;82.67;99224.42;104839;1264;72300;-24
2023/10/18 01:24:35;;;;;;;5.50;3.50;;;;;;;0.75;81.33;99227.73;104790;1264;73146;-24
2023/10/18 01:27:03;;;;;;;10.30;5.00;;;;;;;0.82;80.03;99224.91;102506;1273;3196153;-25
2023/10/18 01:37:13;;;;;;;7.90;4.40;;;;;;;-0.13;83.82;99232.08;102641;1292;600199;-27
2023/10/18 01:39:41;;;;;;;6.30;3.90;;;;;;;-0.33;85.35;99233.27;105229;1264;61248;-24
2023/10/18 01:49:53;;;;;;;8.40;5.20;;;;;;;0.59;81.70;99227.95;102856;1294;600084;-23
2023/10/18 02:00:03;;;;;;;9.00;5.20;;;;;;;-0.34;83.53;99227.66;102605;1293;600292;-23
2023/10/18 02:07:24;;;;;;;8.10;5.00;;;;;;;0.55;82.10;99231.36;104863;1266;61085;-25
2023/10/18 02:09:57;;;;;;;8.00;4.30;;;;;;;0.67;80.62;99229.39;104686;1267;70717;-22
2023/10/18 02:12:27;;;;;;;5.80;4.20;;;;;;;0.48;80.15;99230.96;104706;1270;73235;-22
2023/10/18 02:14:55;;;;;;;9.10;4.80;;;;;;;0.19;80.20;99226.70;102541;1267;73558;-22
2023/10/18 02:17:23;;;;;;;8.10;5.80;;;;;;;-0.12;81.40;99225.91;104878;1269;61128;-22
2023/10/18 02:19:52;;;;;;;10.00;5.70;;;;;;;-0.37;82.91;99226.74;104926;1264;61119;-22
2023/10/18 02:22:19;;;;;;;11.40;6.40;;;;;;;-0.63;84.43;99223.85;105086;1264;70774;-22
2023/10/18 02:24:50;;;;;;;5.70;3.80;;;;;;;-0.74;86.50;99227.45;104964;1269;74295;-22
2023/10/18 02:27:19;;;;;;;9.00;5.10;;;;;;;-0.09;85.96;99226.14;104970;1266;71441;-22
2023/10/18 02:29:48;;;;;;;9.70;6.10;;;;;;;0.36;84.12;99221.64;104802;1269;61141;-22
2023/10/18 02:32:34;;;;;;;7.90;4.10;;;;;;;0.55;83.22;99220.26;105046;1266;61160;-22
2023/10/18 02:35:08;;;;;;;9.30;5.80;;;;;;;0.35;82.92;99221.00;105163;1269;70825;-23
2023/10/18 02:37:36;;;;;;;9.00;5.10;;;;;;;0.15;82.80;99216.78;104854;1272;74305;-23
2023/10/18 02:40:07;;;;;;;7.80;5.20;;;;;;;-0.06;82.86;99217.68;104851;1267;71453;-23
2023/10/18 02:42:36;;;;;;;7.50;4.80;;;;;;;-0.36;83.56;99217.69;104866;1272;61317;-23
2023/10/18 02:45:13;;;;;;;7.60;5.00;;;;;;;-0.62;85.86;99209.65;104936;1269;61231;-23
2023/10/18 02:47:42;;;;;;;13.90;5.70;;;;;;;-0.17;86.40;99212.25;104767;1270;71810;-23
2023/10/18 02:57:56;;;;;;;9.60;5.10;;;;;;;-0.00;82.31;99207.57;102529;1292;602601;-24
2023/10/18 03:00:25;;;;;;;6.80;5.00;;;;;;;-0.32;82.62;99205.27;104867;1272;61180;-24
2023/10/18 03:02:54;;;;;;;8.90;5.50;;;;;;;-0.57;82.79;99203.34;104804;1267;61084;-24
2023/10/18 03:05:24;;;;;;;8.20;5.40;;;;;;;-0.79;83.07;99200.98;104849;1270;71568;-24
2023/10/18 03:07:51;;;;;;;10.80;5.30;;;;;;;-0.96;83.73;99196.09;104807;1270;73558;-24
2023/10/18 03:10:27;;;;;;;9.40;4.70;;;;;;;-0.55;83.99;99194.75;102423;1267;3243675;-25
2023/10/18 03:12:56;;;;;;;9.00;5.30;;;;;;;0.13;82.96;99191.08;104768;1267;61164;-24
2023/10/18 03:15:24;;;;;;;5.60;3.90;;;;;;;0.26;82.07;99189.56;104939;1266;62684;-24
2023/10/18 03:25:31;;;;;;;6.90;4.00;;;;;;;-0.51;82.27;99204.53;102670;1292;600320;-23
2023/10/18 03:28:13;;;;;;;6.60;4.10;;;;;;;-0.78;82.30;99202.17;104896;1271;61190;-24
2023/10/18 03:38:21;;;;;;;12.10;5.00;;;;;;;0.31;82.04;99202.34;102626;1292;600723;-21
2023/10/18 03:40:56;;;;;;;9.30;6.00;;;;;;;0.12;81.91;99204.58;104864;1269;61203;-23
2023/10/18 03:43:32;;;;;;;7.90;4.80;;;;;;;-0.12;81.83;99203.91;104769;1267;61130;-24
2023/10/18 03:46:13;;;;;;;12.00;4.60;;;;;;;-0.38;82.54;99200.67;104841;1266;70948;-23
2023/10/18 03:56:22;;;;;;;6.40;3.60;;;;;;;-0.31;85.41;99192.59;102772;1295;600099;-23
2023/10/18 03:59:00;;;;;;;8.00;4.70;;;;;;;0.39;83.62;99187.90;105085;1269;61269;-24
2023/10/18 04:01:28;;;;;;;7.60;5.10;;;;;;;0.49;81.89;99182.55;104871;1264;61125;-24
2023/10/18 04:03:56;;;;;;;8.30;5.50;;;;;;;0.33;81.49;99178.04;104882;1267;71058;-24
2023/10/18 04:06:35;;;;;;;7.10;4.80;;;;;;;0.07;81.98;99181.39;105117;1264;74295;-24
2023/10/18 04:09:16;;;;;;;7.30;5.10;;;;;;;-0.16;82.25;99180.15;102638;1267;3166352;-24
2023/10/18 04:19:26;;;;;;;5.80;4.30;;;;;;;-1.00;83.17;99171.15;102611;1292;599424;-23
2023/10/18 04:21:54;;;;;;;4.60;3.50;;;;;;;-0.33;83.69;99168.41;105226;1263;61149;-24
2023/10/18 04:32:06;;;;;;;6.60;5.00;;;;;;;0.19;82.40;99166.08;102688;1290;601156;-23
2023/10/18 04:34:34;;;;;;;7.40;5.30;;;;;;;-0.05;82.56;99163.55;105051;1269;61173;-24
2023/10/18 04:37:05;;;;;;;9.00;5.00;;;;;;;-0.28;82.91;99166.05;104854;1265;61076;-24
2023/10/18 04:39:34;;;;;;;11.70;5.50;;;;;;;-0.48;83.83;99165.55;104866;1270;72230;-24
2023/10/18 04:42:06;;;;;;;12.70;5.30;;;;;;;-0.28;84.82;99168.10;104878;1267;73098;-24
2023/10/18 04:44:35;;;;;;;5.60;4.10;;;;;;;0.31;84.48;99166.16;102529;1271;3147012;-27
2023/10/18 04:47:14;;;;;;;9.40;4.80;;;;;;;0.54;83.81;99166.67;104916;1264;61106;-24
2023/10/18 04:57:00;;;;;;;10.70;6.40;;;;;;;0.12;84.96;99163.43;102588;1294;600329;-23
2023/10/18 04:59:40;;;;;;;7.90;5.10;;;;;;;0.08;85.07;99167.88;104928;1269;61174;-23
2023/10/18 05:02:16;;;;;;;6.80;5.50;;;;;;;0.73;84.58;99169.17;104839;1271;61120;-23
2023/10/18 05:04:46;;;;;;;8.30;4.90;;;;;;;1.36;82.95;99172.33;104755;1266;72109;-23
2023/10/18 05:07:17;;;;;;;10.20;5.00;;;;;;;1.32;81.33;99171.96;104771;1272;73314;-23
2023/10/18 05:09:45;;;;;;;9.20;4.80;;;;;;;1.10;81.71;99174.23;102502;1270;3300362;-23
2023/10/18 05:14:43;;;;;;;7.30;4.80;;;;;;;0.78;82.59;99180.97;104910;1267;61153;-24
2023/10/18 05:17:23;;;;;;;9.60;6.90;;;;;;;0.47;84.15;99180.40;105016;1270;71036;-23
2023/10/18 05:19:51;;;;;;;11.30;6.70;;;;;;;0.69;85.00;99182.17;104769;1270;74429;-23
2023/10/18 05:22:25;;;;;;;7.50;5.30;;;;;;;1.33;83.65;99183.89;104834;1281;71786;-23
2023/10/18 05:27:46;;;;;;;9.70;6.50;;;;;;;1.37;82.04;99184.75;104816;1272;61088;-23
2023/10/18 05:38:19;;;;;;;10.00;6.00;;;;;;;1.10;83.60;99189.27;102691;1289;600095;-22
2023/10/18 05:40:56;;;;;;;8.10;5.00;;;;;;;1.79;82.31;99185.39;104889;1263;61083;-23
2023/10/18 05:43:30;;;;;;;14.50;6.50;;;;;;;2.02;80.83;99181.01;104857;1263;61174;-23
2023/10/18 05:46:00;;;;;;;12.70;6.10;;;;;;;1.92;80.50;99176.11;104889;1267;72256;-24
2023/10/18 05:48:31;;;;;;;9.60;5.10;;;;;;;1.78;81.02;99174.30;105236;1268;73168;-24
2023/10/18 05:51:05;;;;;;;9.80;6.70;;;;;;;1.74;81.50;99172.45;102839;1260;3235616;-23
2023/10/18 05:53:32;;;;;;;14.00;6.40;;;;;;;1.68;81.52;99173.54;105257;1260;61114;-23
2023/10/18 05:56:00;;;;;;;8.70;6.20;;;;;;;1.58;81.78;99173.29;105140;1264;61161;-23
2023/10/18 05:58:28;;;;;;;10.20;5.40;;;;;;;2.18;81.80;99166.38;105126;1260;71041;-23
2023/10/18 06:00:56;;;;;;;7.60;4.20;;;;;;;2.86;79.88;99164.69;105184;1261;74276;-23
2023/10/18 06:03:27;;;;;;;10.60;7.60;;;;;;;2.84;78.10;99162.20;105139;1260;71411;-23
2023/10/18 06:05:55;;;;;;;12.40;8.50;;;;;;;2.63;78.69;99157.89;105164;1260;61167;-23
2023/10/18 06:08:23;;;;;;;13.10;8.50;;;;;;;2.51;79.36;99163.07;105094;1260;61043;-23
2023/10/18 06:10:56;;;;;;;9.40;7.10;;;;;;;2.35;79.85;99161.02;105236;1265;72974;-23
2023/10/18 06:13:27;;;;;;;9.30;6.10;;;;;;;2.23;80.17;99160.55;105123;1260;73050;-23
2023/10/18 06:16:02;;;;;;;8.10;5.40;;;;;;;2.10;81.08;99161.61;105235;1262;72476;-23
2023/10/18 06:18:30;;;;;;;9.60;6.10;;;;;;;2.67;80.52;99162.46;105145;1264;61142;-23
2023/10/18 06:20:59;;;;;;;10.70;7.30;;;;;;;3.02;79.06;99164.90;105258;1264;61771;-23
2023/10/18 06:26:17;;;;;;;;;;;;;;;3.00;79.37;99161.61;105180;1260;73044;-23
2023/10/18 06:28:45;;;;;;;8.20;5.40;;;;;;;2.64;80.01;99157.29;105157;1263;72643;-23
2023/10/18 06:31:13;;;;;;;9.90;6.50;;;;;;;2.41;81.40;99161.11;105283;1265;61246;-23
2023/10/18 06:41:22;;;;;;;10.90;7.20;;;;;;;3.62;79.12;99149.96;102661;1292;600611;-23
2023/10/18 06:43:52;;;;;;;15.20;8.00;;;;;;;3.59;79.09;99150.10;104877;1267;61232;-24
2023/10/18 06:46:26;;;;;;;13.10;7.40;;;;;;;3.43;79.39;99145.95;104825;1266;61110;-24
2023/10/18 06:48:58;;;;;;;14.30;7.50;;;;;;;3.28;80.03;99148.08;104837;1272;70966;-24
2023/10/18 06:51:50;;;;;;;9.80;6.20;;;;;;;3.61;80.12;99140.95;104647;1274;73549;-24
2023/10/18 06:54:30;;;;;;;9.70;6.90;;;;;;;3.99;78.70;99139.12;102542;1269;3234898;-24
2023/10/18 06:57:09;;;;;;;11.80;8.10;;;;;;;3.96;78.85;99137.09;105099;1266;61168;-24
2023/10/18 06:59:37;;;;;;;12.80;8.50;;;;;;;3.77;79.44;99131.70;105101;1268;61187;-24
2023/10/18 07:02:05;;;;;;;12.90;8.60;;;;;;;3.54;80.61;99125.83;105035;1267;70995;-24
2023/10/18 07:04:38;;;;;;;9.50;6.30;;;;;;;3.48;81.48;99124.09;105285;1264;74299;-24
2023/10/18 07:07:11;;;;;;;12.30;8.20;;;;;;;3.91;80.99;99122.41;105210;1264;71422;-24
2023/10/18 07:09:42;;;;;;;17.60;9.80;;;;;;;4.41;79.73;99117.64;105146;1265;61102;-24
2023/10/18 07:12:13;;;;;;;17.10;10.00;;;;;;;4.53;78.42;99116.67;104896;1269;61152;-24
2023/10/18 07:14:41;;;;;;;16.90;10.20;;;;;;;4.49;78.45;99118.40;105169;1261;72179;-24
2023/10/18 07:17:14;;;;;;;16.60;8.70;;;;;;;4.19;79.67;99114.92;105094;1266;73081;-24
2023/10/18 07:22:19;;;;;;;14.40;7.90;;;;;;;4.33;79.87;99111.54;105161;1263;61131;-23
2023/10/18 07:24:47;;;;;;;10.60;7.50;;;;;;;4.84;78.65;99107.02;105069;1261;61181;-23
2023/10/18 07:27:17;;;;;;;12.00;7.40;;;;;;;4.85;77.70;99102.15;105141;1269;73006;-24
2023/10/18 07:29:49;;;;;;;10.40;7.40;;;;;;;4.82;78.16;99106.66;105231;1266;74267;-23
2023/10/18 07:32:20;;;;;;;13.50;8.20;;;;;;;4.61;78.46;99109.17;105194;1266;71394;-23
2023/10/18 07:34:48;;;;;;;12.40;8.60;;;;;;;4.52;79.33;99102.97;105182;1267;61171;-23
2023/10/18 07:37:25;;;;;;;11.00;7.30;;;;;;;4.53;79.84;99103.60;105482;1262;61161;-23
2023/10/18 07:40:11;;;;;;;12.50;7.90;;;;;;;5.02;78.06;99101.89;105485;1262;72048;-23
2023/10/18 07:53:11;;;;;;;11.10;7.00;;;;;;;5.03;78.18;99096.33;104881;1268;61267;-24
2023/10/18 07:55:41;;;;;;;12.00;6.80;;;;;;;5.25;77.62;99096.95;104858;1267;61187;-24
2023/10/18 07:58:22;;;;;;;12.50;6.90;;;;;;;5.83;75.70;99096.29;104822;1270;70152;-24
2023/10/18 08:08:36;;;;;;;13.70;8.30;;;;;;;5.87;74.43;99088.77;102675;1293;600768;-23
2023/10/18 08:11:10;;;;;;;12.80;8.40;;;;;;;5.80;75.27;99086.48;108690;1268;58817;-24
2023/10/18 08:13:45;;;;;;;10.40;6.40;;;;;;;5.81;74.41;99085.19;108624;1264;60020;-24
2023/10/18 08:16:26;;;;;;;;;;;;;;;6.47;73.94;99080.43;108612;1269;72280;-24
2023/10/18 08:18:57;;;;;;;11.70;7.00;;;;;;;7.01;70.50;99075.40;108631;1263;74340;-24
2023/10/18 08:21:37;;;;;;;12.40;7.90;;;;;;;7.10;69.38;99072.20;104160;1262;6031288;-24
2023/10/18 08:24:08;;;;;;;12.30;7.90;;;;;;;6.91;69.03;99065.41;108785;1263;58835;-24
2023/10/18 08:26:47;;;;;;;13.80;8.00;;;;;;;6.90;69.33;99064.08;108761;1262;62335;-24
2023/10/18 08:29:15;;;;;;;14.80;8.00;;;;;;;6.98;68.99;99058.90;108879;1263;72271;-24
2023/10/18 08:31:48;;;;;;;15.10;8.60;;;;;;;6.95;68.46;99056.33;108736;1263;73036;-24
2023/10/18 08:34:17;;;;;;;11.10;8.00;;;;;;;7.11;68.86;99061.27;108780;1263;71900;-24
2023/10/18 08:36:45;;;;;;;14.10;7.50;;;;;;;7.09;68.09;99065.03;108695;1263;59084;-24
2023/10/18 08:39:13;;;;;;;11.20;8.10;;;;;;;7.16;67.87;99065.50;108800;1262;58689;-24
2023/10/18 08:41:54;;;;;;;15.20;7.60;;;;;;;7.16;67.19;99063.57;108789;1262;73002;-24
2023/10/18 08:44:24;;;;;;;14.40;7.90;;;;;;;7.08;67.40;99057.03;108715;1263;74862;-24
2023/10/18 08:46:55;;;;;;;11.30;8.10;;;;;;;7.05;67.67;99054.48;108839;1263;72703;-24
2023/10/18 08:49:23;;;;;;;10.90;7.20;;;;;;;7.22;67.64;99055.22;108767;1263;60050;-24
2023/10/18 08:51:56;;;;;;;12.10;8.50;;;;;;;7.03;67.12;99049.58;108800;1262;59137;-24
2023/10/18 08:54:24;;;;;;;15.00;8.10;;;;;;;6.96;67.65;99048.85;108740;1268;71854;-24
2023/10/18 08:56:52;;;;;;;11.50;7.60;;;;;;;6.95;67.27;99047.13;108751;1261;73105;-24
2023/10/18 08:59:19;;;;;;;13.40;7.90;;;;;;;7.23;67.44;99045.85;108720;1263;73538;-24
2023/10/18 09:04:35;;;;;;;12.20;7.00;;;;;;;7.89;65.88;99035.62;108753;1263;58770;-24
2023/10/18 09:07:18;;;;;;;10.60;6.70;;;;;;;8.19;64.67;99028.85;108794;1268;72188;-24
2023/10/18 09:09:58;;;;;;;9.70;6.20;;;;;;;8.48;63.92;99026.11;108792;1263;73304;-24
2023/10/18 09:15:29;;;;;;;8.50;5.60;;;;;;;8.87;61.76;99018.73;108748;1263;58783;-24
2023/10/18 09:18:03;;;;;;;11.10;5.40;;;;;;;8.98;60.50;99015.33;108811;1263;58769;-24
2023/10/18 09:20:31;;;;;;;9.60;5.50;;;;;;;8.89;60.74;99009.05;108729;1263;75283;-24
2023/10/18 09:23:03;;;;;;;9.20;5.30;;;;;;;8.97;60.58;98997.11;108768;1263;74315;-24
2023/10/18 09:25:50;;;;;;;9.10;4.70;;;;;;;9.07;60.23;98995.60;108734;1263;74216;-24
2023/10/18 09:28:25;;;;;;;6.30;4.00;;;;;;;8.78;60.29;98994.66;108738;1264;58851;-24
2023/10/18 09:31:02;;;;;;;6.10;4.00;;;;;;;8.77;60.58;98991.41;108696;1263;60048;-24
2023/10/18 09:33:33;;;;;;;7.30;4.30;;;;;;;8.95;59.97;98983.66;108624;1263;71832;-24
2023/10/18 09:36:18;;;;;;;6.40;3.90;;;;;;;9.58;58.91;98975.08;108735;1262;73074;-24
2023/10/18 09:38:47;;;;;;;8.60;3.50;;;;;;;9.90;55.74;98967.19;108780;1263;71413;-24
2023/10/18 09:41:15;;;;;;;7.20;4.10;;;;;;;9.95;56.54;98970.58;108676;1265;61005;-24
2023/10/18 09:43:44;;;;;;;8.30;4.40;;;;;;;10.21;56.37;98970.81;108705;1269;60992;-24
2023/10/18 09:46:13;;;;;;;9.30;3.90;;;;;;;10.24;55.71;98965.00;108687;1266;71419;-24
2023/10/18 09:48:47;;;;;;;8.30;3.90;;;;;;;10.14;55.27;98958.02;108639;1263;74329;-24
2023/10/18 09:51:16;;;;;;;7.80;3.60;;;;;;;9.90;55.45;98957.52;108685;1262;72691;-24
2023/10/18 09:53:48;;;;;;;8.80;3.90;;;;;;;10.13;55.12;98957.25;108708;1263;58876;-24
2023/10/18 09:56:24;;;;;;;7.70;3.70;;;;;;;10.23;54.98;98946.15;108702;1263;58748;-24
2023/10/18 09:59:04;;;;;;;5.20;3.60;;;;;;;10.72;54.70;98942.69;108729;1263;72970;-24
2023/10/18 10:04:17;;;;;;;6.40;3.30;;;;;;;11.35;51.42;98925.75;108784;1263;74867;-24
2023/10/18 10:06:52;;;;;;;4.80;3.00;;;;;;;11.53;51.54;98923.70;108587;1264;62197;-24
2023/10/18 10:09:29;;;;;;;5.40;2.70;;;;;;;11.87;49.93;98915.73;108703;1263;61977;-24
2023/10/18 10:11:57;;;;;;;4.90;3.00;;;;;;;11.47;49.05;98910.31;108737;1263;72134;-21
2023/10/18 10:14:29;;;;;;;5.30;2.90;;;;;;;11.81;49.00;98904.41;109101;1257;74296;-22
2023/10/18 10:17:07;;;;;;;5.70;3.20;;;;;;;11.73;48.85;98892.92;109125;1255;74509;-22
2023/10/18 10:19:42;;;;;;;6.10;3.20;;;;;;;11.78;49.04;98889.33;109063;1256;59023;-22
2023/10/18 10:22:11;;;;;;;5.60;3.20;;;;;;;11.76;48.73;98894.05;109041;1256;59526;-22
2023/10/18 10:24:43;;;;;;;7.60;3.50;;;;;;;11.53;49.54;98887.77;108958;1256;71785;-21
2023/10/18 10:27:39;;;;;;;7.10;3.40;;;;;;;11.20;50.04;98887.62;109120;1256;74383;-22
2023/10/18 10:30:25;;;;;;;5.20;3.00;;;;;;;11.02;50.02;98885.70;109016;1256;72578;-22
2023/10/18 10:33:05;;;;;;;5.20;3.10;;;;;;;10.83;51.03;98879.64;109100;1257;60950;-22
2023/10/18 10:35:41;;;;;;;5.50;3.30;;;;;;;10.70;51.43;98875.48;109049;1256;58862;-25
2023/10/18 10:38:13;;;;;;;5.00;3.30;;;;;;;10.61;51.76;98872.79;108977;1255;74453;-24
2023/10/18 10:40:48;;;;;;;7.70;3.80;;;;;;;10.56;51.10;98874.98;109086;1256;77001;-24
2023/10/18 10:43:18;;;;;;;7.50;4.00;;;;;;;10.65;51.17;98867.76;109134;1257;72608;-24
2023/10/18 10:50:59;;;;;;;2.90;1.60;;;;;;;11.50;48.50;98861.74;109132;1257;75257;-24
2023/10/18 10:53:48;;;;;;;3.20;1.70;;;;;;;11.30;45.86;98853.75;109052;1256;75457;-24
2023/10/18 10:56:19;;;;;;;4.70;1.70;;;;;;;10.98;46.25;98859.48;109071;1258;73103;-24
2023/10/18 10:58:54;;;;;;;7.00;2.10;;;;;;;10.71;45.39;98860.35;109098;1257;58762;-24
2023/10/18 11:01:39;;;;;;;4.80;2.00;;;;;;;10.78;46.09;98855.42;109072;1255;59905;-24
2023/10/18 11:04:29;;;;;;;4.60;2.60;;;;;;;10.63;46.26;98852.15;109305;1252;74633;-24
2023/10/18 11:07:00;;;;;;;4.90;2.30;;;;;;;10.63;46.93;98852.37;109469;1254;75990;-24
2023/10/18 11:09:33;;;;;;;5.30;2.70;;;;;;;10.59;47.58;98849.44;109415;1253;73567;-24
2023/10/18 11:12:07;;;;;;;4.60;2.40;;;;;;;10.50;47.52;98844.02;109167;1254;61562;-24
2023/10/18 11:14:36;;;;;;;3.40;2.20;;;;;;;10.49;48.11;98843.22;109401;1254;60023;-24
2023/10/18 11:17:17;;;;;;;5.00;2.60;;;;;;;10.48;48.20;98839.73;109412;1252;73921;-24
2023/10/18 11:19:54;;;;;;;4.80;2.40;;;;;;;10.48;48.30;98834.88;109183;1254;75424;-24
2023/10/18 11:22:23;;;;;;;8.70;3.00;;;;;;;10.43;49.00;98834.91;109192;1254;71390;-24
2023/10/18 11:24:52;;;;;;;7.20;3.00;;;;;;;10.41;49.92;98832.98;109150;1254;58838;-24
2023/10/18 11:27:33;;;;;;;6.10;2.70;;;;;;;10.41;49.93;98832.48;109117;1254;61858;-24
2023/10/18 11:30:22;;;;;;;5.20;2.60;;;;;;;10.51;49.37;98826.62;109239;1253;75496;-24
2023/10/18 11:32:52;;;;;;;5.90;3.10;;;;;;;10.68;48.78;98825.88;109309;1253;74354;-24
2023/10/18 11:38:10;;;;;;;7.90;3.50;;;;;;;11.29;47.85;98810.07;109387;1253;58890;-24
2023/10/18 11:40:41;;;;;;;6.70;2.70;;;;;;;11.69;46.95;98803.59;109162;1253;59437;-25
2023/10/18 11:43:08;;;;;;;6.20;2.80;;;;;;;11.66;45.90;98797.38;109379;1253;71705;-24
2023/10/18 11:45:37;;;;;;;3.90;2.70;;;;;;;11.73;45.01;98796.05;109408;1253;76261;-24
2023/10/18 11:48:14;;;;;;;7.30;2.50;;;;;;;12.02;45.32;98787.34;109222;1254;72659;-24
2023/10/18 11:50:43;;;;;;;5.00;2.50;;;;;;;12.36;44.84;98785.17;109268;1254;60238;-24
2023/10/18 11:53:12;;;;;;;4.50;2.60;;;;;;;12.41;43.34;98777.77;109163;1254;60340;-24
2023/10/18 11:56:02;;;;;;;4.00;2.30;;;;;;;12.50;44.37;98776.35;109391;1252;72120;-24
2023/10/18 11:58:33;;;;;;;9.00;2.70;;;;;;;12.62;42.78;98771.13;109409;1254;73061;-24
2023/10/18 12:01:15;;;;;;;5.10;2.70;;;;;;;12.24;42.83;98770.28;109235;1253;71348;-24
2023/10/18 12:03:43;;;;;;;4.20;2.80;;;;;;;12.05;43.63;98772.53;109046;1254;58900;-24
2023/10/18 12:06:11;;;;;;;4.00;2.60;;;;;;;12.30;43.92;98769.04;109421;1253;60088;-25
2023/10/18 12:09:45;;;;;;;5.70;2.80;;;;;;;12.29;43.70;98761.42;109328;1254;73082;-24
2023/10/18 12:11:41;;;;;;;6.30;3.50;;;;;;;11.68;44.61;98762.23;109099;1254;76051;-24
2023/10/18 12:14:08;;;;;;;4.40;2.70;;;;;;;11.72;45.08;98754.02;109280;1254;74949;-24
2023/10/18 12:16:38;;;;;;;5.80;3.30;;;;;;;11.77;44.88;98756.63;109132;1257;58855;-24
2023/10/18 12:19:06;;;;;;;5.60;3.10;;;;;;;11.66;45.07;98758.59;109282;1254;59826;-24
2023/10/18 12:21:34;;;;;;;4.90;2.50;;;;;;;11.59;45.45;98750.52;109294;1254;75184;-24
2023/10/18 12:24:04;;;;;;;7.70;2.80;;;;;;;11.81;45.36;98753.44;109282;1253;74314;-24
2023/10/18 12:26:34;;;;;;;4.50;2.90;;;;;;;12.05;45.40;98744.46;109127;1254;74201;-24
2023/10/18 12:29:15;;;;;;;6.00;2.70;;;;;;;12.23;45.04;98744.41;109099;1254;60512;-24
2023/10/18 12:31:52;;;;;;;3.70;2.50;;;;;;;11.83;45.53;98745.89;109115;1254;60984;-24
2023/10/18 12:34:32;;;;;;;3.60;2.70;;;;;;;11.56;46.51;98739.70;109290;1254;74812;-24
2023/10/18 12:37:01;;;;;;;5.00;2.70;;;;;;;11.46;46.69;98738.52;109102;1253;74444;-24
2023/10/18 12:39:34;;;;;;;4.70;2.70;;;;;;;11.65;46.85;98734.40;109263;1254;71497;-24
2023/10/18 12:42:05;;;;;;;6.00;2.70;;;;;;;11.61;46.89;98732.48;109446;1254;58889;-24
2023/10/18 12:44:33;;;;;;;4.30;2.50;;;;;;;11.87;46.10;98733.59;109038;1254;60022;-24
2023/10/18 12:47:09;;;;;;;4.20;2.60;;;;;;;11.71;46.43;98733.33;109141;1254;73583;-24
2023/10/18 12:49:44;;;;;;;5.70;3.00;;;;;;;11.78;46.18;98733.00;109163;1254;75446;-24
2023/10/18 12:55:00;;;;;;;7.30;3.70;;;;;;;11.65;46.81;98730.19;109206;1253;60100;-24
2023/10/18 12:57:32;;;;;;;5.00;2.90;;;;;;;11.55;47.06;98733.04;109237;1253;60105;-24
2023/10/18 13:00:13;;;;;;;4.40;3.00;;;;;;;11.42;46.99;98727.91;109146;1254;73801;-24
2023/10/18 13:02:51;;;;;;;6.80;3.10;;;;;;;11.34;47.30;98733.61;109151;1254;75395;-24
2023/10/18 13:05:18;;;;;;;8.60;2.90;;;;;;;11.12;47.46;98726.88;109207;1254;70531;-24
2023/10/18 13:07:52;;;;;;;4.80;2.70;;;;;;;11.06;48.65;98723.98;109245;1253;62096;-24
2023/10/18 13:10:29;;;;;;;7.00;3.20;;;;;;;11.20;48.15;98725.15;109156;1254;62232;-24
2023/10/18 13:13:04;;;;;;;4.80;2.90;;;;;;;11.44;47.41;98718.48;109223;1254;73921;-24
2023/10/18 13:15:35;;;;;;;7.60;3.80;;;;;;;11.65;47.28;98709.17;109208;1254;73673;-24
2023/10/18 13:18:03;;;;;;;14.60;6.50;;;;;;;11.76;46.16;98703.77;109192;1254;72717;-25
2023/10/18 13:20:34;;;;;;;10.40;5.30;;;;;;;11.88;45.61;98698.23;109152;1254;61080;-24
2023/10/18 13:23:06;;;;;;;9.60;4.70;;;;;;;11.85;45.14;98695.31;109229;1254;58953;-24
2023/10/18 13:25:37;;;;;;;9.20;4.40;;;;;;;11.52;45.80;98698.16;109052;1254;75361;-24
2023/10/18 13:28:05;;;;;;;5.30;3.30;;;;;;;11.22;46.61;98698.24;109132;1254;73643;-24
2023/10/18 13:30:39;;;;;;;11.40;4.60;;;;;;;11.06;47.25;98697.52;109171;1254;71452;-25
2023/10/18 13:33:14;;;;;;;10.50;5.00;;;;;;;10.99;47.65;98694.52;109112;1254;61553;-24
2023/10/18 13:35:44;;;;;;;7.60;3.50;;;;;;;10.94;47.74;98689.74;109132;1254;58907;-24
2023/10/18 13:38:15;;;;;;;12.30;4.10;;;;;;;10.85;47.74;98693.30;109189;1257;75057;-24
2023/10/18 13:40:46;;;;;;;8.30;4.20;;;;;;;10.86;48.36;98691.48;109131;1254;75133;-24
2023/10/18 13:43:14;;;;;;;5.90;3.20;;;;;;;11.05;48.04;98690.48;109168;1254;73607;-24
2023/10/18 13:45:41;;;;;;;5.00;2.90;;;;;;;11.06;47.68;98690.39;109113;1254;60280;-24
2023/10/18 13:48:11;;;;;;;4.70;2.70;;;;;;;10.98;47.75;98693.45;109194;1254;60101;-24
2023/10/18 13:50:39;;;;;;;11.00;4.60;;;;;;;10.86;48.04;98692.20;109198;1254;75986;-24
2023/10/18 13:53:07;;;;;;;7.50;4.10;;;;;;;10.76;48.88;98696.17;109214;1254;74500;-24
2023/10/18 13:55:34;;;;;;;8.80;4.40;;;;;;;10.73;48.98;98693.50;109167;1254;71572;-24
2023/10/18 13:58:06;;;;;;;7.00;3.50;;;;;;;10.64;49.46;98691.70;109166;1254;62239;-24
2023/10/18 14:00:40;;;;;;;6.60;3.20;;;;;;;10.64;48.91;98686.83;109225;1254;60234;-24
2023/10/18 14:03:08;;;;;;;5.90;3.30;;;;;;;10.75;48.95;98687.25;109197;1254;75996;-24
2023/10/18 14:05:40;;;;;;;7.70;3.20;;;;;;;10.79;48.58;98683.27;109379;1254;74173;-24
2023/10/18 14:08:11;;;;;;;5.80;3.30;;;;;;;10.78;48.36;98681.06;109200;1254;73572;-24
2023/10/18 14:10:41;;;;;;;4.60;3.20;;;;;;;10.72;48.65;98679.36;109146;1254;62201;-24
2023/10/18 14:13:12;;;;;;;4.30;2.50;;;;;;;10.61;48.51;98677.56;109150;1254;61509;-24
2023/10/18 14:15:43;;;;;;;4.80;2.70;;;;;;;10.54;49.23;98675.36;109052;1254;73768;-24
2023/10/18 14:18:14;;;;;;;5.00;2.70;;;;;;;10.51;49.98;98676.97;109147;1254;73508;-24
2023/10/18 14:20:50;;;;;;;6.70;3.20;;;;;;;10.46;50.16;98677.06;109103;1254;73576;-24
2023/10/18 14:23:27;;;;;;;5.30;2.90;;;;;;;10.43;50.35;98679.95;109103;1254;61592;-24
2023/10/18 14:26:00;;;;;;;5.80;2.70;;;;;;;10.32;50.36;98673.39;109130;1254;60144;-24
2023/10/18 14:28:32;;;;;;;3.50;2.70;;;;;;;10.17;50.90;98672.10;109103;1254;73830;-24
2023/10/18 14:31:04;;;;;;;4.90;2.90;;;;;;;10.01;51.25;98672.71;109110;1254;74274;-24
2023/10/18 14:33:34;;;;;;;6.80;3.30;;;;;;;9.86;51.13;98672.77;109121;1254;71795;-24
2023/10/18 14:36:07;;;;;;;6.00;3.20;;;;;;;9.68;51.71;98668.05;109103;1254;62371;-24
2023/10/18 14:38:39;;;;;;;4.10;3.10;;;;;;;9.58;51.81;98669.36;109018;1254;60091;-24
2023/10/18 14:41:20;;;;;;;5.70;2.90;;;;;;;9.48;52.10;98666.25;109144;1254;73849;-24
2023/10/18 14:44:01;;;;;;;5.60;3.20;;;;;;;9.35;52.62;98675.11;109091;1254;73065;-24
2023/10/18 14:46:32;;;;;;;3.90;2.80;;;;;;;9.22;53.09;98675.98;109080;1254;72664;-24
2023/10/18 14:49:04;;;;;;;5.70;3.50;;;;;;;9.12;53.56;98676.39;109039;1254;58818;-24
2023/10/18 14:51:33;;;;;;;5.90;3.40;;;;;;;9.02;53.93;98672.73;108991;1254;60138;-24
2023/10/18 14:54:06;;;;;;;4.20;3.00;;;;;;;8.89;54.38;98669.29;109047;1254;73964;-24